Time;durP1;ratioP1;P1;durP2;ratioP2;P2;SDS_P1;SDS_P2;PMS_P1;PMS_P2;Temp;Humidity;BMP_temperature;BMP_pressure;BME280_temperature;BME280_humidity;BME280_pressure;Samples;Min_cycle;Max_cycle;Signal;HPM_P1;HPM_P2
2023/12/04 00:00:02;;;;;;;41.60;23.13;;;2.40;99.90;;;;;;6211582;23;20001;-76
2023/12/04 00:02:28;;;;;;;41.40;22.47;;;2.40;99.90;;;;;;6212117;23;20372;-76
2023/12/04 00:04:54;;;;;;;39.43;23.70;;;2.40;99.90;;;;;;6211889;23;20080;-77
2023/12/04 00:07:19;;;;;;;44.93;23.87;;;2.40;99.90;;;;;;6212336;23;20001;-76
2023/12/04 00:09:45;;;;;;;41.10;23.00;;;2.40;99.90;;;;;;6211711;23;20028;-75
2023/12/04 00:12:10;;;;;;;41.17;23.87;;;2.40;99.90;;;;;;6212474;23;19997;-75
2023/12/04 00:14:36;;;;;;;37.13;21.67;;;2.40;99.90;;;;;;6185965;23;20036;-76
2023/12/04 00:17:01;;;;;;;40.23;22.63;;;2.40;99.90;;;;;;6213597;23;20076;-77
2023/12/04 00:19:27;;;;;;;39.47;24.20;;;2.30;99.90;;;;;;6213853;23;20095;-76
2023/12/04 00:21:52;;;;;;;39.93;22.47;;;2.30;99.90;;;;;;6187620;23;20449;-76
2023/12/04 00:24:18;;;;;;;44.30;24.23;;;2.40;99.90;;;;;;6214014;23;20614;-76
2023/12/04 00:26:43;;;;;;;40.67;23.50;;;2.30;99.90;;;;;;6187184;23;20431;-76
2023/12/04 00:29:09;;;;;;;39.13;22.47;;;2.30;99.90;;;;;;6213554;23;20342;-76
2023/12/04 00:31:35;;;;;;;44.20;25.10;;;2.30;99.90;;;;;;6213421;23;20437;-77
2023/12/04 00:34:00;;;;;;;40.87;23.77;;;2.40;99.90;;;;;;6213543;23;19997;-76
2023/12/04 00:36:26;;;;;;;33.53;21.50;;;2.40;99.90;;;;;;6187243;23;20442;-76
2023/12/04 00:38:52;;;;;;;39.30;22.20;;;2.40;99.90;;;;;;6213734;23;20437;-76
2023/12/04 00:41:17;;;;;;;40.90;22.47;;;2.40;99.90;;;;;;6186923;23;20001;-77
2023/12/04 00:43:43;;;;;;;38.90;24.40;;;2.40;99.90;;;;;;6187276;23;19997;-77
2023/12/04 00:46:09;;;;;;;39.33;23.33;;;2.40;99.90;;;;;;6213309;23;20004;-76
2023/12/04 00:48:34;;;;;;;36.70;22.07;;;2.40;99.90;;;;;;6213552;23;20001;-76
2023/12/04 00:51:00;;;;;;;43.07;23.23;;;2.40;99.90;;;;;;6212563;23;20091;-77
2023/12/04 00:53:25;;;;;;;33.90;21.53;;;2.40;99.90;;;;;;6186434;23;20001;-76
2023/12/04 00:55:51;;;;;;;38.10;22.80;;;2.40;99.90;;;;;;6211707;23;20150;-77
2023/12/04 00:58:16;;;;;;;36.70;20.97;;;2.40;99.90;;;;;;6213613;23;20084;-76
2023/12/04 01:00:42;;;;;;;32.50;20.47;;;2.40;99.90;;;;;;6212436;23;20051;-77
2023/12/04 01:03:07;;;;;;;35.93;21.07;;;2.40;99.90;;;;;;6213572;23;20001;-75
2023/12/04 01:05:33;;;;;;;35.90;21.43;;;2.40;99.90;;;;;;6213662;23;20004;-75
2023/12/04 01:07:58;;;;;;;37.10;19.90;;;2.30;99.90;;;;;;6213701;23;20012;-75
2023/12/04 01:10:24;;;;;;;41.03;22.17;;;2.40;99.90;;;;;;6187081;23;20005;-75
2023/12/04 01:12:49;;;;;;;38.50;23.23;;;2.40;99.90;;;;;;6187239;23;20009;-75
2023/12/04 01:15:15;;;;;;;39.47;22.23;;;2.40;99.90;;;;;;6213451;23;20031;-75
2023/12/04 01:17:41;;;;;;;38.77;22.27;;;2.30;99.90;;;;;;6213360;23;20004;-75
2023/12/04 01:20:07;;;;;;;38.97;22.13;;;2.30;99.90;;;;;;6211959;23;20015;-75
2023/12/04 01:22:33;;;;;;;34.23;20.67;;;2.30;99.90;;;;;;6213865;23;20111;-75
2023/12/04 01:24:58;;;;;;;37.20;21.40;;;2.40;99.90;;;;;;6213643;23;20032;-74
2023/12/04 01:27:24;;;;;;;38.90;21.87;;;2.40;99.90;;;;;;6186098;23;20004;-74
2023/12/04 01:29:49;;;;;;;37.77;22.47;;;2.40;99.90;;;;;;6212135;23;20335;-75
2023/12/04 01:32:16;;;;;;;37.80;21.30;;;2.40;99.90;;;;;;6187550;23;20044;-75
2023/12/04 01:34:41;;;;;;;35.00;20.53;;;2.40;99.90;;;;;;6213604;23;20019;-75
2023/12/04 01:37:07;;;;;;;38.30;21.10;;;2.40;99.90;;;;;;6213281;23;20003;-75
2023/12/04 01:39:32;;;;;;;39.07;20.93;;;2.40;99.90;;;;;;6187208;23;20004;-75
2023/12/04 01:41:58;;;;;;;35.57;21.03;;;2.40;99.90;;;;;;6213638;23;20007;-75
2023/12/04 01:44:24;;;;;;;35.37;20.43;;;2.40;99.90;;;;;;6213282;23;20047;-75
2023/12/04 01:46:50;;;;;;;42.07;22.20;;;2.40;99.90;;;;;;6187454;23;20004;-75
2023/12/04 01:49:15;;;;;;;38.10;21.47;;;2.40;99.90;;;;;;6186289;23;20083;-74
2023/12/04 01:51:42;;;;;;;36.20;21.43;;;2.40;99.90;;;;;;6187232;23;20004;-75
2023/12/04 01:54:08;;;;;;;39.27;20.90;;;2.30;99.90;;;;;;6186458;23;20410;-74
2023/12/04 01:56:35;;;;;;;29.73;18.97;;;2.40;99.90;;;;;;6187096;23;20000;-75
2023/12/04 01:59:01;;;;;;;33.20;19.73;;;2.40;99.90;;;;;;6213368;23;20079;-74
2023/12/04 02:01:27;;;;;;;30.80;18.67;;;2.40;99.90;;;;;;6214026;23;20047;-74
2023/12/04 02:03:54;;;;;;;33.80;21.47;;;2.40;99.90;;;;;;6187321;23;20437;-74
2023/12/04 02:06:20;;;;;;;38.07;20.60;;;2.40;99.90;;;;;;6186913;23;20087;-75
2023/12/04 02:08:47;;;;;;;33.97;20.60;;;2.40;99.90;;;;;;6213329;23;20000;-75
2023/12/04 02:11:12;;;;;;;32.77;19.23;;;2.30;99.90;;;;;;6213609;23;20028;-75
2023/12/04 02:13:38;;;;;;;33.33;18.83;;;2.30;99.90;;;;;;6213476;23;20001;-75
2023/12/04 02:16:07;;;;;;;30.80;20.60;;;2.30;99.90;;;;;;6212993;23;20443;-74
2023/12/04 02:18:34;;;;;;;33.90;20.23;;;2.30;99.90;;;;;;6212628;23;20086;-74
2023/12/04 02:21:01;;;;;;;33.50;19.40;;;2.30;99.90;;;;;;6212960;23;20001;-72
2023/12/04 02:23:27;;;;;;;33.20;20.70;;;2.30;99.90;;;;;;6212450;23;20015;-72
2023/12/04 02:26:00;;;;;;;35.83;21.57;;;2.30;99.90;;;;;;6213032;23;20422;-72
2023/12/04 02:28:30;;;;;;;30.40;18.48;;;2.30;99.90;;;;;;6212832;23;20001;-72
2023/12/04 02:30:58;;;;;;;29.73;18.80;;;2.30;99.90;;;;;;6212737;23;20007;-72
2023/12/04 02:33:24;;;;;;;30.00;18.30;;;2.30;99.90;;;;;;6212571;23;20335;-72
2023/12/04 02:35:51;;;;;;;36.57;20.80;;;2.30;99.90;;;;;;6212867;23;20051;-72
2023/12/04 02:38:17;;;;;;;34.20;18.37;;;2.30;99.90;;;;;;6212309;23;20051;-72
2023/12/04 02:40:43;;;;;;;27.47;17.33;;;2.30;99.90;;;;;;6212204;23;20490;-72
2023/12/04 02:43:08;;;;;;;28.13;17.63;;;2.30;99.90;;;;;;6212245;23;20036;-72
2023/12/04 02:45:34;;;;;;;30.43;18.47;;;2.30;99.90;;;;;;6212230;23;20011;-72
2023/12/04 02:47:59;;;;;;;28.70;16.67;;;2.30;99.90;;;;;;6212747;23;20040;-72
2023/12/04 02:50:25;;;;;;;27.83;17.47;;;2.30;99.90;;;;;;6212763;23;20031;-72
2023/12/04 02:52:50;;;;;;;28.37;18.73;;;2.30;99.90;;;;;;6185659;23;20449;-72
2023/12/04 02:55:16;;;;;;;28.40;17.00;;;2.30;99.90;;;;;;6212237;23;20422;-72
2023/12/04 02:57:41;;;;;;;31.53;19.67;;;2.40;99.90;;;;;;6213324;23;20011;-72
2023/12/04 03:00:08;;;;;;;26.27;16.43;;;2.30;99.90;;;;;;6212479;23;20068;-72
2023/12/04 03:02:33;;;;;;;24.50;16.53;;;2.30;99.90;;;;;;6212635;23;20013;-73
2023/12/04 03:04:59;;;;;;;26.63;17.23;;;2.30;99.90;;;;;;6212660;23;20388;-72
2023/12/04 03:07:26;;;;;;;26.70;16.13;;;2.30;99.90;;;;;;6212167;23;20379;-72
2023/12/04 03:09:51;;;;;;;26.20;16.00;;;2.30;99.90;;;;;;6212479;23;20074;-72
2023/12/04 03:12:17;;;;;;;28.37;18.47;;;2.30;99.90;;;;;;6212648;23;20001;-72
2023/12/04 03:14:43;;;;;;;26.47;16.07;;;2.30;99.90;;;;;;6211712;23;20013;-72
2023/12/04 03:17:08;;;;;;;27.30;17.17;;;2.30;99.90;;;;;;6212054;23;20015;-72
2023/12/04 03:19:34;;;;;;;26.67;16.33;;;2.30;99.90;;;;;;6212331;23;20473;-72
2023/12/04 03:22:00;;;;;;;24.20;15.80;;;2.30;99.90;;;;;;6212551;23;20051;-72
2023/12/04 03:24:26;;;;;;;26.93;16.67;;;2.40;99.90;;;;;;6211983;23;20087;-72
2023/12/04 03:26:52;;;;;;;29.47;17.77;;;2.30;99.90;;;;;;6212547;23;20028;-72
2023/12/04 03:29:18;;;;;;;25.23;16.13;;;2.30;99.90;;;;;;6211700;23;20418;-72
2023/12/04 03:31:43;;;;;;;27.13;17.27;;;2.30;99.90;;;;;;6212239;23;20007;-72
2023/12/04 03:34:09;;;;;;;23.03;15.57;;;2.30;99.90;;;;;;6211816;23;20032;-72
2023/12/04 03:36:34;;;;;;;24.57;15.73;;;2.40;99.90;;;;;;6212235;23;20344;-72
2023/12/04 03:39:00;;;;;;;26.63;15.47;;;2.40;99.90;;;;;;6211428;23;20003;-72
2023/12/04 03:41:25;;;;;;;25.80;15.60;;;2.30;99.90;;;;;;6212344;23;20004;-72
2023/12/04 03:43:51;;;;;;;28.30;17.07;;;2.30;99.90;;;;;;6212260;23;20000;-72
2023/12/04 03:46:16;;;;;;;24.97;16.43;;;2.30;99.90;;;;;;6212385;23;20004;-72
2023/12/04 03:48:42;;;;;;;24.20;15.93;;;2.30;99.90;;;;;;6212512;23;20036;-72
2023/12/04 03:51:07;;;;;;;26.57;16.23;;;2.30;99.90;;;;;;6213489;23;20005;-72
2023/12/04 03:53:33;;;;;;;26.70;16.07;;;2.30;99.90;;;;;;6214382;23;20312;-72
2023/12/04 03:55:59;;;;;;;24.10;15.77;;;2.30;99.90;;;;;;6214254;23;20009;-72
2023/12/04 03:58:25;;;;;;;25.67;14.67;;;2.30;99.90;;;;;;6214203;23;20007;-72
2023/12/04 04:00:50;;;;;;;23.27;14.23;;;2.20;99.90;;;;;;6213963;23;20009;-72
2023/12/04 04:03:16;;;;;;;24.20;14.87;;;2.20;99.90;;;;;;6214006;23;20004;-72
2023/12/04 04:05:41;;;;;;;27.60;15.90;;;2.20;99.90;;;;;;6214199;23;20440;-72
2023/12/04 04:08:07;;;;;;;23.03;15.43;;;2.20;99.90;;;;;;6213493;23;20442;-72
2023/12/04 04:10:33;;;;;;;23.87;15.40;;;2.20;99.90;;;;;;6213889;23;20028;-73
2023/12/04 04:12:59;;;;;;;22.80;14.67;;;2.20;99.90;;;;;;6214061;23;20005;-72
2023/12/04 04:15:25;;;;;;;22.03;14.97;;;2.10;99.90;;;;;;6213642;23;20013;-72
2023/12/04 04:17:51;;;;;;;27.70;16.30;;;2.20;99.90;;;;;;6214099;23;19996;-72
2023/12/04 04:20:17;;;;;;;20.70;13.93;;;2.10;99.90;;;;;;6214235;23;19997;-72
2023/12/04 04:22:43;;;;;;;20.17;13.57;;;2.10;99.90;;;;;;6213609;23;20001;-72
2023/12/04 04:25:09;;;;;;;22.87;14.53;;;2.10;99.90;;;;;;6213638;23;20000;-72
2023/12/04 04:27:35;;;;;;;20.87;14.83;;;2.10;99.90;;;;;;6214267;23;20012;-72
2023/12/04 04:30:01;;;;;;;25.50;14.83;;;2.10;99.90;;;;;;6213416;23;20032;-72
2023/12/04 04:32:27;;;;;;;23.73;14.83;;;2.10;99.90;;;;;;6214277;23;20047;-72
2023/12/04 04:34:52;;;;;;;22.53;15.17;;;2.10;99.90;;;;;;6213601;23;20342;-72
2023/12/04 04:37:19;;;;;;;27.13;15.80;;;2.10;99.90;;;;;;6213800;23;20001;-72
2023/12/04 04:39:45;;;;;;;22.90;15.03;;;2.10;99.90;;;;;;6213134;23;20005;-72
2023/12/04 04:42:11;;;;;;;23.57;15.63;;;2.10;99.90;;;;;;6214251;23;20001;-75
2023/12/04 04:44:36;;;;;;;20.73;14.33;;;2.10;99.90;;;;;;6213213;23;20009;-76
2023/12/04 04:47:02;;;;;;;23.20;14.17;;;2.00;99.90;;;;;;6213021;23;20004;-76
2023/12/04 04:49:27;;;;;;;22.53;14.10;;;2.00;99.90;;;;;;6188339;23;20088;-75
2023/12/04 04:51:53;;;;;;;20.43;14.47;;;2.00;99.90;;;;;;6213019;23;20005;-75
2023/12/04 04:54:19;;;;;;;22.43;15.17;;;2.00;99.90;;;;;;6214310;23;20109;-75
2023/12/04 04:56:44;;;;;;;20.80;15.13;;;2.10;99.90;;;;;;6214242;23;20076;-76
2023/12/04 04:59:10;;;;;;;23.03;15.30;;;2.00;99.90;;;;;;6213763;23;21001;-76
2023/12/04 05:01:36;;;;;;;22.33;14.43;;;2.00;99.90;;;;;;6213535;23;20031;-75
2023/12/04 05:04:02;;;;;;;23.93;14.63;;;2.00;99.90;;;;;;6213587;23;19997;-76
2023/12/04 05:06:28;;;;;;;22.80;14.17;;;2.00;99.90;;;;;;6213316;23;20004;-76
2023/12/04 05:08:53;;;;;;;20.60;14.37;;;2.00;99.90;;;;;;6213666;23;20004;-76
2023/12/04 05:11:19;;;;;;;21.10;14.70;;;2.00;99.90;;;;;;6187384;23;20443;-75
2023/12/04 05:13:45;;;;;;;21.93;14.13;;;2.00;99.90;;;;;;6213440;23;20436;-76
2023/12/04 05:16:10;;;;;;;23.03;13.60;;;2.00;99.90;;;;;;6187140;23;20020;-76
2023/12/04 05:18:36;;;;;;;21.03;14.77;;;2.00;99.90;;;;;;6186635;23;20019;-76
2023/12/04 05:21:02;;;;;;;21.13;13.67;;;2.00;99.90;;;;;;6213092;23;19996;-76
2023/12/04 05:23:27;;;;;;;21.50;13.33;;;2.00;99.90;;;;;;6211929;23;20001;-76
2023/12/04 05:25:53;;;;;;;20.40;13.53;;;2.00;99.90;;;;;;6213609;23;20047;-76
2023/12/04 05:28:18;;;;;;;20.17;14.17;;;2.00;99.90;;;;;;6213246;23;20005;-75
2023/12/04 05:30:44;;;;;;;19.07;12.87;;;2.00;99.90;;;;;;6213581;23;20001;-75
2023/12/04 05:33:09;;;;;;;20.90;13.47;;;2.00;99.90;;;;;;6213651;23;20004;-75
2023/12/04 05:35:36;;;;;;;20.53;14.07;;;2.00;99.90;;;;;;6213107;23;20015;-75
2023/12/04 05:38:01;;;;;;;19.00;12.47;;;2.00;99.90;;;;;;6213243;23;20000;-75
2023/12/04 05:40:27;;;;;;;20.77;13.47;;;2.00;99.90;;;;;;6186832;23;20050;-75
2023/12/04 05:42:53;;;;;;;19.20;12.47;;;2.00;99.90;;;;;;6213437;23;20028;-75
2023/12/04 05:45:18;;;;;;;20.97;13.30;;;2.10;99.90;;;;;;6183664;23;20091;-75
2023/12/04 05:47:44;;;;;;;20.30;13.20;;;2.00;99.90;;;;;;6211990;23;20004;-75
2023/12/04 05:50:09;;;;;;;18.00;11.67;;;2.00;99.90;;;;;;6185614;23;20005;-75
2023/12/04 05:52:35;;;;;;;19.83;13.47;;;2.00;99.90;;;;;;6185574;23;20011;-75
2023/12/04 05:55:00;;;;;;;21.27;14.13;;;2.10;99.90;;;;;;6213128;23;20014;-75
2023/12/04 05:57:26;;;;;;;22.30;13.97;;;2.10;99.90;;;;;;6213631;23;20001;-75
2023/12/04 05:59:51;;;;;;;17.70;12.63;;;2.10;99.90;;;;;;6213120;23;20071;-75
2023/12/04 06:02:17;;;;;;;18.07;12.97;;;2.10;99.90;;;;;;6212911;23;20072;-75
2023/12/04 06:04:43;;;;;;;20.73;13.23;;;2.10;99.90;;;;;;6186602;23;20730;-76
2023/12/04 06:07:09;;;;;;;19.53;13.10;;;2.10;99.90;;;;;;6212630;23;20012;-76
2023/12/04 06:09:36;;;;;;;18.43;12.70;;;2.10;99.90;;;;;;6186701;23;20001;-76
2023/12/04 06:12:07;;;;;;;18.33;12.37;;;2.10;99.90;;;;;;6212246;23;20316;-76
2023/12/04 06:14:33;;;;;;;17.90;12.67;;;2.10;99.90;;;;;;6185826;23;20032;-76
2023/12/04 06:16:59;;;;;;;18.27;12.97;;;2.10;99.90;;;;;;6186405;23;20000;-76
2023/12/04 06:19:24;;;;;;;16.83;11.40;;;2.20;99.90;;;;;;6186110;23;20058;-76
2023/12/04 06:21:50;;;;;;;19.27;13.30;;;2.10;99.90;;;;;;6212938;23;20054;-75
2023/12/04 06:24:16;;;;;;;15.97;11.70;;;2.20;99.90;;;;;;6212958;23;20001;-75
2023/12/04 06:26:43;;;;;;;18.97;12.37;;;2.20;99.90;;;;;;6213332;23;20004;-75
2023/12/04 06:29:09;;;;;;;16.63;11.40;;;2.20;99.90;;;;;;6185838;23;20000;-75
2023/12/04 06:31:34;;;;;;;14.27;9.97;;;2.20;99.90;;;;;;6212947;23;20007;-75
2023/12/04 06:34:00;;;;;;;20.03;12.63;;;2.20;99.90;;;;;;6212370;23;20055;-75
2023/12/04 06:36:29;;;;;;;13.97;9.67;;;2.20;99.90;;;;;;6212619;23;20316;-75
2023/12/04 06:38:56;;;;;;;17.10;11.03;;;2.20;99.90;;;;;;6213260;23;20004;-75
2023/12/04 06:41:21;;;;;;;16.67;10.83;;;2.20;99.90;;;;;;6212685;23;19999;-75
2023/12/04 06:43:47;;;;;;;15.33;10.60;;;2.20;99.90;;;;;;6213116;23;20365;-74
2023/12/04 06:46:15;;;;;;;16.07;10.53;;;2.20;99.90;;;;;;6212144;23;20438;-75
2023/12/04 06:48:44;;;;;;;15.03;10.43;;;2.30;99.90;;;;;;6214118;23;20452;-75
2023/12/04 06:51:09;;;;;;;15.83;10.47;;;2.30;99.90;;;;;;6212591;23;20000;-75
2023/12/04 06:53:35;;;;;;;14.80;11.43;;;2.30;99.90;;;;;;6186262;23;20005;-75
2023/12/04 06:56:01;;;;;;;16.73;10.60;;;2.20;99.90;;;;;;6212314;23;20508;-76
2023/12/04 06:58:26;;;;;;;15.03;10.13;;;2.20;99.90;;;;;;6185756;23;20012;-76
2023/12/04 07:00:53;;;;;;;17.63;11.37;;;2.30;99.90;;;;;;6185125;23;20430;-76
2023/12/04 07:03:18;;;;;;;13.60;10.07;;;2.20;99.90;;;;;;6212394;23;19996;-75
2023/12/04 07:05:44;;;;;;;14.67;10.93;;;2.30;99.90;;;;;;6212751;23;20005;-75
2023/12/04 07:08:10;;;;;;;15.60;10.40;;;2.30;99.90;;;;;;6212666;23;20001;-75
2023/12/04 07:10:35;;;;;;;13.67;9.77;;;2.30;99.90;;;;;;6211617;23;20005;-74
2023/12/04 07:13:01;;;;;;;19.53;10.93;;;2.30;99.90;;;;;;6210947;23;20011;-75
2023/12/04 07:15:26;;;;;;;14.60;10.67;;;2.30;99.90;;;;;;6211956;23;20016;-75
2023/12/04 07:17:52;;;;;;;14.93;10.17;;;2.30;99.90;;;;;;6185692;23;20000;-74
2023/12/04 07:20:18;;;;;;;12.17;9.33;;;2.30;99.90;;;;;;6212627;23;20076;-74
2023/12/04 07:22:44;;;;;;;14.70;9.10;;;2.30;99.90;;;;;;6187308;23;20186;-70
2023/12/04 07:25:09;;;;;;;14.60;10.00;;;2.30;99.90;;;;;;6190564;23;20088;-70
2023/12/04 07:27:35;;;;;;;14.03;9.77;;;2.30;99.90;;;;;;6217279;23;20031;-70
2023/12/04 07:30:01;;;;;;;13.07;9.50;;;2.30;99.90;;;;;;6211283;23;20323;-69
2023/12/04 07:32:26;;;;;;;14.83;9.53;;;2.30;99.90;;;;;;6211702;23;20318;-69
2023/12/04 07:34:52;;;;;;;14.17;9.83;;;2.20;99.90;;;;;;6212651;23;20009;-70
2023/12/04 07:37:17;;;;;;;15.37;10.57;;;2.30;99.90;;;;;;6211796;23;20008;-70
2023/12/04 07:39:46;;;;;;;14.27;9.57;;;2.30;99.90;;;;;;6211872;23;20411;-70
2023/12/04 07:42:12;;;;;;;13.30;9.07;;;2.30;99.90;;;;;;6184868;23;20027;-69
2023/12/04 07:44:38;;;;;;;15.67;10.37;;;2.20;99.90;;;;;;6184790;23;20103;-71
2023/12/04 07:47:03;;;;;;;13.90;9.83;;;2.30;99.90;;;;;;6184607;23;20012;-69
2023/12/04 07:49:29;;;;;;;15.30;9.17;;;2.20;99.90;;;;;;6211462;23;20004;-69
2023/12/04 07:51:55;;;;;;;13.93;9.50;;;2.30;99.90;;;;;;6211788;23;19996;-69
2023/12/04 07:54:22;;;;;;;14.27;9.53;;;2.30;99.90;;;;;;6209773;23;20001;-69
2023/12/04 07:56:47;;;;;;;13.83;9.47;;;2.30;99.90;;;;;;6184795;23;20083;-69
2023/12/04 07:59:13;;;;;;;14.13;9.23;;;2.30;99.90;;;;;;6184586;23;20945;-69
2023/12/04 08:01:39;;;;;;;11.03;8.80;;;2.30;99.90;;;;;;6211652;23;20004;-70
2023/12/04 08:04:04;;;;;;;14.07;9.10;;;2.30;99.90;;;;;;6211141;23;20064;-70
2023/12/04 08:06:30;;;;;;;12.47;10.10;;;2.40;99.90;;;;;;6211510;23;20007;-69
2023/12/04 08:08:57;;;;;;;15.20;10.10;;;2.40;99.90;;;;;;6185099;23;20005;-69
2023/12/04 08:11:22;;;;;;;12.93;8.73;;;2.40;99.90;;;;;;6184476;23;20009;-69
2023/12/04 08:13:48;;;;;;;14.97;9.00;;;2.40;99.90;;;;;;6211111;23;20480;-70
2023/12/04 08:16:16;;;;;;;15.87;9.93;;;2.50;99.90;;;;;;6184761;23;20042;-69
2023/12/04 08:18:43;;;;;;;11.33;8.70;;;2.50;99.90;;;;;;6184900;23;20080;-69
2023/12/04 08:21:09;;;;;;;14.67;9.10;;;2.50;99.90;;;;;;6184454;23;20005;-69
2023/12/04 08:23:34;;;;;;;12.23;8.63;;;2.50;99.90;;;;;;6211077;23;20032;-74
2023/12/04 08:26:00;;;;;;;15.60;9.60;;;2.50;99.90;;;;;;6211174;23;20378;-74
2023/12/04 08:28:25;;;;;;;14.37;9.10;;;2.50;99.90;;;;;;6211872;23;20008;-74
2023/12/04 08:30:51;;;;;;;13.97;9.47;;;2.50;99.90;;;;;;6212301;23;20363;-74
2023/12/04 08:33:18;;;;;;;14.43;8.90;;;2.60;99.90;;;;;;6185381;23;20333;-74
2023/12/04 08:35:43;;;;;;;14.60;9.93;;;2.60;99.90;;;;;;6213096;23;19997;-74
2023/12/04 08:38:09;;;;;;;12.97;8.67;;;2.60;99.90;;;;;;6213990;23;20338;-74
2023/12/04 08:40:35;;;;;;;12.53;8.97;;;2.60;99.90;;;;;;6214508;23;20356;-74
2023/12/04 08:43:00;;;;;;;11.27;9.07;;;2.60;99.90;;;;;;6213761;23;19997;-74
2023/12/04 08:45:26;;;;;;;15.23;9.23;;;2.60;99.90;;;;;;6212900;23;20015;-74
2023/12/04 08:47:51;;;;;;;12.87;9.20;;;2.60;99.90;;;;;;6214477;23;20072;-74
2023/12/04 08:50:17;;;;;;;13.77;10.13;;;2.70;99.90;;;;;;6214276;23;20096;-74
2023/12/04 08:52:43;;;;;;;13.33;9.43;;;2.70;99.90;;;;;;6213563;23;20004;-74
2023/12/04 08:55:09;;;;;;;10.90;8.03;;;2.70;99.90;;;;;;6213986;23;20306;-74
2023/12/04 08:57:35;;;;;;;12.20;9.03;;;2.70;99.90;;;;;;6187739;23;20146;-74
2023/12/04 09:00:00;;;;;;;11.73;9.33;;;2.80;99.90;;;;;;6213963;23;20462;-75
2023/12/04 09:02:26;;;;;;;11.80;8.77;;;2.80;99.90;;;;;;6187403;23;21011;-74
2023/12/04 09:04:52;;;;;;;12.73;8.90;;;2.80;99.90;;;;;;6214121;23;20051;-74
2023/12/04 09:07:17;;;;;;;11.30;8.40;;;2.80;99.90;;;;;;6214009;23;20100;-74
2023/12/04 09:09:43;;;;;;;12.00;9.67;;;2.80;99.90;;;;;;6213817;23;20338;-74
2023/12/04 09:12:10;;;;;;;12.03;8.77;;;2.80;99.90;;;;;;6213908;23;20008;-75
2023/12/04 09:14:35;;;;;;;13.67;9.07;;;2.90;99.90;;;;;;6213628;23;20000;-74
2023/12/04 09:17:01;;;;;;;12.73;8.20;;;2.90;99.90;;;;;;6213426;23;20007;-74
2023/12/04 09:19:26;;;;;;;11.77;8.67;;;2.90;99.90;;;;;;6213951;23;20059;-75
2023/12/04 09:21:52;;;;;;;12.70;8.50;;;2.90;99.90;;;;;;6213366;23;20424;-74
2023/12/04 09:24:17;;;;;;;16.73;11.30;;;2.90;99.90;;;;;;6213568;23;20075;-74
2023/12/04 09:26:43;;;;;;;14.60;9.20;;;2.90;99.90;;;;;;6213556;23;20020;-74
2023/12/04 09:29:12;;;;;;;13.37;9.23;;;2.90;99.90;;;;;;6212462;23;20414;-74
2023/12/04 09:31:38;;;;;;;13.37;9.67;;;3.00;99.90;;;;;;6213220;23;20004;-74
2023/12/04 09:34:03;;;;;;;11.03;9.03;;;3.00;99.90;;;;;;6213744;23;20079;-75
2023/12/04 09:36:29;;;;;;;12.50;9.20;;;3.00;99.90;;;;;;6212686;23;20091;-74
2023/12/04 09:38:55;;;;;;;13.40;9.53;;;3.10;99.90;;;;;;6213591;23;20020;-74
2023/12/04 09:41:21;;;;;;;12.73;9.17;;;3.10;99.90;;;;;;6213441;23;20612;-74
2023/12/04 09:43:47;;;;;;;12.77;9.20;;;3.20;99.90;;;;;;6213650;23;20005;-73
2023/12/04 09:46:14;;;;;;;16.40;10.83;;;3.10;99.90;;;;;;6213265;23;20338;-73
2023/12/04 09:48:42;;;;;;;13.13;8.53;;;3.20;99.90;;;;;;6211952;23;20004;-73
2023/12/04 09:51:09;;;;;;;13.00;8.57;;;3.20;99.90;;;;;;6213029;23;20007;-73
2023/12/04 09:53:35;;;;;;;11.60;8.10;;;3.20;99.90;;;;;;6213094;23;20001;-74
2023/12/04 09:56:03;;;;;;;10.57;8.27;;;3.20;99.90;;;;;;6185799;23;20012;-74
2023/12/04 09:58:32;;;;;;;12.67;9.13;;;3.30;99.90;;;;;;6209826;23;20009;-73
2023/12/04 10:01:00;;;;;;;13.47;8.93;;;3.30;99.90;;;;;;6211755;23;20108;-73
2023/12/04 10:03:26;;;;;;;14.27;8.93;;;3.30;99.90;;;;;;6211898;23;20047;-73
2023/12/04 10:05:54;;;;;;;10.87;8.03;;;3.30;99.90;;;;;;6211046;23;20000;-73
2023/12/04 10:08:19;;;;;;;11.13;9.20;;;3.40;99.90;;;;;;6212992;23;21059;-73
2023/12/04 10:10:45;;;;;;;10.40;7.63;;;3.40;99.90;;;;;;6212184;23;20001;-72
2023/12/04 10:13:11;;;;;;;13.73;9.03;;;3.50;99.90;;;;;;6212511;23;20079;-72
2023/12/04 10:15:48;;;;;;;14.87;9.63;;;3.50;99.90;;;;;;6210329;23;20012;-72
2023/12/04 10:18:33;;;;;;;12.23;9.40;;;3.60;99.90;;;;;;6212868;23;20001;-72
2023/12/04 10:21:02;;;;;;;11.03;8.87;;;3.60;99.90;;;;;;6211474;23;20008;-72
2023/12/04 10:23:39;;;;;;;12.50;9.80;;;3.60;99.90;;;;;;6212847;23;20005;-72
2023/12/04 10:26:05;;;;;;;12.10;9.03;;;3.60;99.90;;;;;;6210869;23;20600;-72
2023/12/04 10:28:30;;;;;;;12.90;8.30;;;3.70;99.90;;;;;;6211396;23;20024;-72
2023/12/04 10:30:56;;;;;;;12.40;8.50;;;3.70;99.90;;;;;;6212697;23;20040;-72
2023/12/04 10:33:25;;;;;;;13.80;9.70;;;3.70;99.90;;;;;;6211912;23;20043;-72
2023/12/04 10:35:51;;;;;;;12.77;9.40;;;3.70;99.90;;;;;;6211916;23;20008;-72
2023/12/04 10:38:18;;;;;;;15.17;9.20;;;3.70;99.90;;;;;;6211439;23;20007;-72
2023/12/04 10:40:44;;;;;;;13.33;8.80;;;3.70;99.90;;;;;;6212389;23;20422;-72
2023/12/04 10:43:18;;;;;;;12.47;9.07;;;3.70;99.90;;;;;;6211748;23;20004;-73
2023/12/04 10:45:46;;;;;;;14.52;8.68;;;3.80;99.90;;;;;;6211657;23;20040;-73
2023/12/04 10:48:13;;;;;;;12.63;9.20;;;3.80;99.90;;;;;;6210188;23;20013;-74
2023/12/04 10:50:42;;;;;;;13.00;9.90;;;3.80;99.90;;;;;;6211991;23;20084;-73
2023/12/04 10:53:09;;;;;;;14.23;9.47;;;3.80;99.90;;;;;;6184924;23;20003;-73
2023/12/04 10:55:35;;;;;;;13.37;10.03;;;3.80;99.90;;;;;;6211518;23;20009;-73
2023/12/04 10:58:05;;;;;;;15.53;10.30;;;3.80;99.90;;;;;;6210403;23;20078;-73
2023/12/04 11:00:35;;;;;;;16.90;10.60;;;3.80;99.90;;;;;;6211488;23;20005;-72
2023/12/04 11:03:07;;;;;;;13.60;9.87;;;3.80;99.90;;;;;;6211007;23;20027;-75
2023/12/04 11:05:39;;;;;;;14.20;10.73;;;3.80;99.90;;;;;;6211907;23;20004;-74
2023/12/04 11:08:07;;;;;;;14.67;9.63;;;3.90;99.90;;;;;;6211233;23;20035;-75
2023/12/04 11:10:34;;;;;;;16.00;11.63;;;3.90;99.90;;;;;;6212101;23;20003;-74
2023/12/04 11:13:11;;;;;;;16.60;10.57;;;3.90;99.90;;;;;;6185648;23;20092;-74
2023/12/04 11:15:43;;;;;;;14.13;10.20;;;3.90;99.90;;;;;;6185804;23;20020;-74
2023/12/04 11:18:13;;;;;;;12.43;9.37;;;3.90;99.90;;;;;;6212145;23;20418;-75
2023/12/04 11:20:58;;;;;;;16.33;11.40;;;3.90;99.90;;;;;;6185841;23;20442;-74
2023/12/04 11:23:25;;;;;;;16.30;11.93;;;3.90;99.90;;;;;;6212396;23;20127;-75
2023/12/04 11:25:51;;;;;;;14.23;10.33;;;3.90;99.90;;;;;;6186287;23;20024;-74
2023/12/04 11:28:17;;;;;;;14.63;9.60;;;3.90;99.90;;;;;;6212966;23;20006;-74
2023/12/04 11:30:44;;;;;;;13.10;9.93;;;3.80;99.90;;;;;;6211836;23;20086;-73
2023/12/04 11:33:11;;;;;;;14.17;11.10;;;3.90;99.90;;;;;;6212439;23;20028;-75
2023/12/04 11:35:39;;;;;;;14.83;10.57;;;3.90;99.90;;;;;;6212310;23;20449;-75
2023/12/04 11:38:06;;;;;;;14.67;11.03;;;3.90;99.90;;;;;;6184354;23;20030;-74
2023/12/04 11:40:32;;;;;;;17.03;12.00;;;3.90;99.90;;;;;;6212116;23;19996;-75
2023/12/04 11:42:58;;;;;;;14.03;10.00;;;3.90;99.90;;;;;;6210680;23;19997;-75
2023/12/04 11:45:24;;;;;;;14.73;10.83;;;3.90;99.90;;;;;;6211012;23;20076;-74
2023/12/04 11:47:55;;;;;;;15.50;10.57;;;3.90;99.90;;;;;;6211482;23;20024;-75
2023/12/04 11:50:22;;;;;;;13.80;10.90;;;3.90;99.90;;;;;;6211603;23;20012;-75
2023/12/04 11:52:48;;;;;;;12.93;8.47;;;3.90;99.90;;;;;;6210896;23;20004;-74
2023/12/04 11:55:20;;;;;;;16.30;11.20;;;3.90;99.90;;;;;;6212660;23;20032;-74
2023/12/04 11:57:46;;;;;;;13.90;10.43;;;3.80;99.90;;;;;;6212434;23;19997;-74
2023/12/04 12:00:22;;;;;;;13.00;9.40;;;3.90;99.90;;;;;;6210571;23;20005;-74
2023/12/04 12:02:54;;;;;;;11.93;9.40;;;3.80;99.90;;;;;;6185356;23;20115;-75
2023/12/04 12:05:21;;;;;;;13.33;9.73;;;3.90;99.90;;;;;;6185418;23;20016;-74
2023/12/04 12:07:47;;;;;;;13.80;10.27;;;3.80;99.90;;;;;;6185468;23;20012;-74
2023/12/04 12:10:13;;;;;;;14.13;10.30;;;3.80;99.90;;;;;;6210841;23;20040;-73
2023/12/04 12:12:40;;;;;;;13.43;9.67;;;3.80;99.90;;;;;;6212927;23;20001;-73
2023/12/04 12:15:11;;;;;;;16.00;10.40;;;3.80;99.90;;;;;;6212430;23;20016;-73
2023/12/04 12:17:41;;;;;;;13.07;10.20;;;3.80;99.90;;;;;;6212860;23;20007;-73
2023/12/04 12:20:08;;;;;;;14.10;9.83;;;3.80;99.90;;;;;;6213004;23;20004;-73
2023/12/04 12:22:35;;;;;;;14.33;9.50;;;3.80;99.90;;;;;;6212139;23;20004;-73
2023/12/04 12:25:04;;;;;;;13.90;10.40;;;3.80;99.90;;;;;;6186644;23;20012;-72
2023/12/04 12:27:30;;;;;;;15.23;10.30;;;3.80;99.90;;;;;;6213860;23;20334;-73
2023/12/04 12:29:56;;;;;;;14.00;10.00;;;3.90;99.90;;;;;;6213442;23;20001;-73
2023/12/04 12:32:21;;;;;;;15.10;11.50;;;3.90;99.90;;;;;;6213527;23;19996;-72
2023/12/04 12:34:47;;;;;;;13.37;9.70;;;3.90;99.90;;;;;;6213271;23;20059;-72